Mv.teluk Berau — PMVR — position and weather

sailwx.info

Track history (hours):
 
Tides and Currents Weather Stations Pressure Air Temp Water Temp Dewpoint Dewpoint Depression Visibility Wind Speed Wind Dir Waves Ship Positions

Mv.teluk Berau

Last reported at 2018-Aug-14 07:35 UTC. Time now 2018-Aug-14 13:48 UTC.
Position S 06°52' E 112°48'.

Length 114 m; draft 5.4 m.

Type: Ship. MMSI: 525015473.

Date/timePositionNaut miles runAvg speedWind from/ knotsBaromVisibWave heightAir tempDewpointWater temp
2018-Aug-14 07:35S 06°52' E 112°48'9 7.7
2018-Aug-14 06:28S 06°58' E 112°42'9 9.3
2018-Aug-14 05:29S 07°07' E 112°40'5 8.8
2018-Aug-14 04:56S 07°11' E 112°42'2 4.7
2018-Aug-14 04:28S 07°12' E 112°44'0 0.0
2018-Aug-14 04:00S 07°12' E 112°44'0 0.0
2018-Aug-13 17:53S 07°12' E 112°44'0 0.0
2018-Aug-13 14:44S 07°12' E 112°44'0 0.0
2018-Aug-13 14:08S 07°12' E 112°44'0 0.0
2018-Aug-13 13:47S 07°12' E 112°44'0 0.0
2018-Aug-13 13:27S 07°12' E 112°44'2 3.4
2018-Aug-13 12:59S 07°11' E 112°42'4 6.7
2018-Aug-13 12:26S 07°09' E 112°40'510.1
2018-Aug-13 11:58S 07°04' E 112°40'11 9.5
2018-Aug-13 10:47S 06°54' E 112°44'4 8.3
2018-Aug-13 10:17S 06°52' E 112°48'2 6.4
2018-Aug-13 09:55S 06°51' E 112°50'  
2018-Aug-09 01:12S 06°59' E 112°42'2 8.7
2018-Aug-09 00:59S 07°01' E 112°41'4 8.5
2018-Aug-09 00:27S 07°05' E 112°39'4 8.1
2018-Aug-08 23:57S 07°09' E 112°40'4 7.2
2018-Aug-08 23:27S 07°12' E 112°43'1 1.4
2018-Aug-08 22:38S 07°12' E 112°44'0 0.0
2018-Aug-08 20:44S 07°12' E 112°44'0 0.0
2018-Aug-08 19:47S 07°12' E 112°44'0 0.0
2018-Aug-08 19:26S 07°12' E 112°44'0 0.0
2018-Aug-08 17:41S 07°12' E 112°44'0 0.0
2018-Aug-08 16:20S 07°12' E 112°44'0 0.0
2018-Aug-08 11:08S 07°12' E 112°44'0 0.0
2018-Aug-08 09:37S 07°12' E 112°44'0 1.6
2018-Aug-08 09:26S 07°12' E 112°44'3 5.7
2018-Aug-08 08:59S 07°11' E 112°41'610.8
2018-Aug-08 08:28S 07°06' E 112°39'610.9
2018-Aug-08 07:55S 06°60' E 112°41'4 9.6
2018-Aug-08 07:28S 06°56' E 112°43'6 1.4
2018-Aug-08 03:29S 06°51' E 112°46'2 3.1
2018-Aug-08 02:46S 06°51' E 112°48'3 9.5
2018-Aug-08 02:28S 06°51' E 112°51'14 8.8
2018-Aug-08 00:52S 06°43' E 113°03'  
Track history (hours):
 
Tides and Currents Weather Stations Pressure Air Temp Water Temp Dewpoint Dewpoint Depression Visibility Wind Speed Wind Dir Waves Ship Positions

Mv.teluk Berau

Last reported at 2018-Aug-14 07:35 UTC. Time now 2018-Aug-14 13:48 UTC.
Position S 06°52' E 112°48'.

Length 114 m; draft 5.4 m.

Type: Ship. MMSI: 525015473.

Date/timePositionNaut miles runAvg speedWind from/ knotsBaromVisibWave heightAir tempDewpointWater temp
2018-Aug-14 07:35S 06°52' E 112°48'9 7.7
2018-Aug-14 06:28S 06°58' E 112°42'9 9.3
2018-Aug-14 05:29S 07°07' E 112°40'5 8.8
2018-Aug-14 04:56S 07°11' E 112°42'2 4.7
2018-Aug-14 04:28S 07°12' E 112°44'0 0.0
2018-Aug-14 04:00S 07°12' E 112°44'0 0.0
2018-Aug-13 17:53S 07°12' E 112°44'0 0.0
2018-Aug-13 14:44S 07°12' E 112°44'0 0.0
2018-Aug-13 14:08S 07°12' E 112°44'0 0.0
2018-Aug-13 13:47S 07°12' E 112°44'0 0.0
2018-Aug-13 13:27S 07°12' E 112°44'2 3.4
2018-Aug-13 12:59S 07°11' E 112°42'4 6.7
2018-Aug-13 12:26S 07°09' E 112°40'510.1
2018-Aug-13 11:58S 07°04' E 112°40'11 9.5
2018-Aug-13 10:47S 06°54' E 112°44'4 8.3
2018-Aug-13 10:17S 06°52' E 112°48'2 6.4
2018-Aug-13 09:55S 06°51' E 112°50'  
2018-Aug-09 01:12S 06°59' E 112°42'2 8.7
2018-Aug-09 00:59S 07°01' E 112°41'4 8.5
2018-Aug-09 00:27S 07°05' E 112°39'4 8.1
2018-Aug-08 23:57S 07°09' E 112°40'4 7.2
2018-Aug-08 23:27S 07°12' E 112°43'1 1.4
2018-Aug-08 22:38S 07°12' E 112°44'0 0.0
2018-Aug-08 20:44S 07°12' E 112°44'0 0.0
2018-Aug-08 19:47S 07°12' E 112°44'0 0.0
2018-Aug-08 19:26S 07°12' E 112°44'0 0.0
2018-Aug-08 17:41S 07°12' E 112°44'0 0.0
2018-Aug-08 16:20S 07°12' E 112°44'0 0.0
2018-Aug-08 11:08S 07°12' E 112°44'0 0.0
2018-Aug-08 09:37S 07°12' E 112°44'0 1.6
2018-Aug-08 09:26S 07°12' E 112°44'3 5.7
2018-Aug-08 08:59S 07°11' E 112°41'610.8
2018-Aug-08 08:28S 07°06' E 112°39'610.9
2018-Aug-08 07:55S 06°60' E 112°41'4 9.6
2018-Aug-08 07:28S 06°56' E 112°43'6 1.4
2018-Aug-08 03:29S 06°51' E 112°46'2 3.1
2018-Aug-08 02:46S 06°51' E 112°48'3 9.5
2018-Aug-08 02:28S 06°51' E 112°51'14 8.8
2018-Aug-08 00:52S 06°43' E 113°03'  

Dump ship's entire track history